Annabella, Utah
Current Conditions -  °F | °C
As of 4:35 AM on Friday 31 Oct 2014 (Local Time) from KDTA Reporting Station
Clear Clear  
Wind Chill:   Ceiling: Unl
Heat Index:   Visibility: 10mi
Dew Point: -5°   Wind: 6mph
Humidity: 45%   Direction: 80°E
Pressure: 30.07"   Gusts: NA
Location:  38.71°N, 112.06°W
Report Text: KDTA 311035Z AUTO 08005KT 10SM CLR 06/M05 A3007 RMK AO1 T00611051
Loading
Personal Weather Stations






























Interactive Weather Map New forecast layout! Learn more

10-Day Weather Forecast

Advertisements
Track Severe Weather on mobile